Time;durP1;ratioP1;P1;durP2;ratioP2;P2;SDS_P1;SDS_P2;PMS_P1;PMS_P2;Temp;Humidity;BMP_temperature;BMP_pressure;BME280_temperature;BME280_humidity;BME280_pressure;Samples;Min_cycle;Max_cycle;Signal;HPM_P1;HPM_P2
2021/07/22 00:00:00;;;;;;;19.42;10.48;;;;;;;21.78;59.28;98161.00;6280938;22;20072;-76
2021/07/22 00:02:27;;;;;;;21.73;10.57;;;;;;;21.77;59.28;98167.47;6306358;22;20015;-76
2021/07/22 00:04:53;;;;;;;19.65;12.27;;;;;;;21.72;59.21;98170.03;6279312;22;20043;-76
2021/07/22 00:07:19;;;;;;;21.83;11.77;;;;;;;21.72;59.10;98167.31;6255455;22;20038;-76
2021/07/22 00:09:44;;;;;;;17.50;11.07;;;;;;;21.66;58.99;98160.88;6229296;22;20018;-76
2021/07/22 00:12:14;;;;;;;21.35;11.40;;;;;;;21.64;59.25;98156.72;6204942;22;20015;-76
2021/07/22 00:14:40;;;;;;;22.73;11.77;;;;;;;21.68;59.28;98169.66;6256461;22;20019;-76
2021/07/22 00:17:06;;;;;;;23.30;12.00;;;;;;;21.69;59.24;98175.91;6280687;22;20458;-77
2021/07/22 00:19:32;;;;;;;19.80;11.25;;;;;;;21.62;59.44;98175.97;6306456;22;20107;-77
2021/07/22 00:21:58;;;;;;;26.88;10.95;;;;;;;21.49;59.66;98166.06;6254789;22;20015;-76
2021/07/22 00:24:25;;;;;;;25.90;11.73;;;;;;;21.51;59.70;98166.69;6280536;22;20042;-78
2021/07/22 00:26:51;;;;;;;21.65;11.57;;;;;;;21.41;60.29;98155.44;6306185;22;20019;-78
2021/07/22 00:29:17;;;;;;;24.88;12.88;;;;;;;21.50;60.07;98172.31;6254548;22;20367;-76
2021/07/22 00:31:43;;;;;;;19.65;11.15;;;;;;;21.52;59.75;98171.06;6280410;22;20449;-77
2021/07/22 00:34:08;;;;;;;19.30;10.88;;;;;;;21.49;59.57;98146.19;6280085;22;20029;-77
2021/07/22 00:36:35;;;;;;;22.98;11.18;;;;;;;21.52;59.34;98143.84;6255275;22;20126;-76
2021/07/22 00:39:01;;;;;;;17.42;11.00;;;;;;;21.60;59.49;98156.34;6254987;22;20403;-76
2021/07/22 00:41:27;;;;;;;18.85;11.13;;;;;;;21.58;59.25;98147.56;6279954;22;20359;-77
2021/07/22 00:43:53;;;;;;;21.15;10.88;;;;;;;21.66;59.49;98157.31;6280457;22;20025;-78
2021/07/22 00:46:19;;;;;;;20.77;12.48;;;;;;;21.70;59.55;98159.41;6254713;22;20039;-77
2021/07/22 00:48:47;;;;;;;20.92;11.15;;;;;;;21.69;59.72;98146.00;6279734;22;20050;-75
2021/07/22 00:51:13;;;;;;;20.65;10.68;;;;;;;21.79;59.56;98165.38;6305627;22;20018;-77
2021/07/22 00:53:39;;;;;;;18.15;11.43;;;;;;;21.74;59.48;98151.59;6254030;22;20019;-76
2021/07/22 00:56:06;;;;;;;17.95;11.13;;;;;;;21.77;59.86;98151.16;6254560;22;20053;-76
2021/07/22 00:58:33;;;;;;;14.50;10.13;;;;;;;21.83;59.53;98150.28;6255074;22;20351;-77
2021/07/22 01:00:59;;;;;;;22.33;10.52;;;;;;;21.94;59.36;98165.84;6304922;22;20030;-77
2021/07/22 01:03:26;;;;;;;26.50;9.77;;;;;;;21.98;59.46;98161.63;6279562;22;20027;-76
2021/07/22 01:05:52;;;;;;;19.48;10.93;;;;;;;21.99;59.32;98154.28;6307083;22;20025;-77
2021/07/22 01:08:19;;;;;;;15.93;11.32;;;;;;;22.05;59.52;98159.69;6254750;22;20025;-77
2021/07/22 01:11:03;;;;;;;18.98;10.90;;;;;;;21.99;59.20;98149.69;6305533;22;20097;-77
2021/07/22 01:13:30;;;;;;;21.55;11.68;;;;;;;22.09;59.30;98157.34;6305147;22;20407;-77
2021/07/22 01:15:56;;;;;;;25.52;12.02;;;;;;;22.13;59.19;98160.44;6280645;22;20470;-76
2021/07/22 01:18:21;;;;;;;18.98;11.10;;;;;;;22.17;59.35;98167.13;6280349;22;20099;-77
2021/07/22 01:20:49;;;;;;;24.13;11.35;;;;;;;22.19;59.11;98173.16;6230431;22;20450;-78
2021/07/22 01:23:15;;;;;;;18.83;11.25;;;;;;;22.14;59.34;98160.22;6279879;22;20019;-77
2021/07/22 01:26:03;;;;;;;21.08;10.55;;;;;;;22.17;58.91;98161.69;6284254;22;20030;-76
2021/07/22 01:28:29;;;;;;;23.88;10.77;;;;;;;22.23;58.94;98158.06;6280064;22;20022;-77
2021/07/22 01:30:56;;;;;;;18.08;10.98;;;;;;;22.23;58.72;98147.19;6254568;22;20408;-78
2021/07/22 01:33:22;;;;;;;19.42;10.73;;;;;;;22.28;58.69;98142.69;6305111;22;20528;-77
2021/07/22 01:35:49;;;;;;;22.92;10.68;;;;;;;22.30;58.76;98139.72;6307093;22;20023;-78
2021/07/22 01:38:15;;;;;;;29.70;11.13;;;;;;;22.34;58.71;98148.28;6305290;22;20072;-77
2021/07/22 01:40:42;;;;;;;17.88;10.13;;;;;;;22.34;58.72;98151.00;6229438;22;20030;-77
2021/07/22 01:43:08;;;;;;;23.17;10.27;;;;;;;22.39;58.27;98149.28;6229240;22;20023;-76
2021/07/22 01:45:45;;;;;;;21.98;10.80;;;;;;;22.43;58.19;98145.03;6282076;22;20090;-75
2021/07/22 01:48:11;;;;;;;27.92;11.02;;;;;;;22.48;58.29;98137.00;6228872;22;20019;-79
2021/07/22 01:50:37;;;;;;;20.58;11.32;;;;;;;22.54;58.00;98136.09;6254107;22;20072;-77
2021/07/22 01:53:04;;;;;;;26.70;11.75;;;;;;;22.54;58.02;98130.66;6279397;22;20448;-77
2021/07/22 01:55:30;;;;;;;18.40;11.30;;;;;;;22.61;57.75;98125.13;6255604;22;20019;-78
2021/07/22 01:58:00;;;;;;;20.70;11.35;;;;;;;22.65;57.86;98130.94;6258110;22;20330;-74
2021/07/22 02:00:31;;;;;;;17.75;10.38;;;;;;;22.72;57.61;98128.97;6281142;22;20025;-78
2021/07/22 02:03:01;;;;;;;19.75;10.95;;;;;;;22.77;57.51;98129.91;6243341;22;20026;-78
2021/07/22 02:05:45;;;;;;;22.00;11.23;;;;;;;22.84;57.24;98118.94;6181299;22;20020;-76
2021/07/22 02:08:11;;;;;;;24.58;10.20;;;;;;;22.86;57.09;98119.53;6258762;22;20437;-77
2021/07/22 02:10:37;;;;;;;21.15;9.20;;;;;;;22.86;57.25;98110.53;6258373;22;20025;-77
2021/07/22 02:13:03;;;;;;;20.33;10.43;;;;;;;22.95;56.93;98118.19;6283649;22;20326;-76
2021/07/22 02:15:42;;;;;;;19.90;9.68;;;;;;;23.01;57.00;98125.41;6260787;22;20316;-78
2021/07/22 02:18:08;;;;;;;17.20;9.80;;;;;;;23.01;56.74;98113.69;6283860;22;20029;-78
2021/07/22 02:20:35;;;;;;;16.83;9.27;;;;;;;22.95;56.83;98110.00;6283872;22;20027;-77
2021/07/22 02:23:01;;;;;;;12.70;8.93;;;;;;;22.99;56.70;98113.09;6232414;22;20021;-78
2021/07/22 02:25:45;;;;;;;19.23;8.85;;;;;;;23.13;56.66;98127.34;6247196;22;20074;-81
2021/07/22 02:28:12;;;;;;;25.88;9.70;;;;;;;23.18;56.50;98125.59;6232838;22;20028;-81
2021/07/22 02:30:38;;;;;;;20.55;9.35;;;;;;;23.21;56.33;98124.28;6284413;22;20024;-82
2021/07/22 02:33:04;;;;;;;18.95;10.00;;;;;;;23.22;56.40;98120.50;6283706;22;20025;-82
2021/07/22 02:35:30;;;;;;;18.40;10.18;;;;;;;23.30;56.14;98130.22;6260297;22;20031;-80
2021/07/22 02:38:22;;;;;;;17.80;9.63;;;;;;;23.26;55.99;98121.69;6204974;22;20057;-80
2021/07/22 02:40:48;;;;;;;18.48;9.60;;;;;;;23.34;56.01;98124.06;6284351;22;20096;-81
2021/07/22 02:43:16;;;;;;;14.73;9.67;;;;;;;23.43;56.06;98127.28;6232560;22;20025;-82
2021/07/22 02:45:42;;;;;;;19.25;9.55;;;;;;;23.50;55.57;98131.56;6258593;22;20150;-80
2021/07/22 02:48:09;;;;;;;24.02;9.73;;;;;;;23.52;55.65;98131.34;6283390;22;20021;-79
2021/07/22 02:50:35;;;;;;;22.08;10.10;;;;;;;23.54;55.71;98117.44;6231611;22;20020;-80
2021/07/22 02:53:05;;;;;;;25.90;10.25;;;;;;;23.62;55.51;98114.38;6235045;22;20020;-77
2021/07/22 02:55:36;;;;;;;18.27;9.95;;;;;;;23.73;55.31;98108.97;6283486;22;20060;-77
2021/07/22 02:58:06;;;;;;;22.48;9.73;;;;;;;23.74;54.78;98093.41;6257509;22;20040;-77
2021/07/22 03:00:39;;;;;;;24.00;9.60;;;;;;;23.87;54.72;98105.97;6283498;22;20013;-82
2021/07/22 03:03:06;;;;;;;19.92;9.75;;;;;;;24.02;54.58;98116.41;6210044;22;20478;-85
2021/07/22 03:05:33;;;;;;;16.88;8.80;;;;;;;24.15;54.25;98105.25;6235805;22;20021;-80
2021/07/22 03:08:01;;;;;;;21.00;8.60;;;;;;;24.17;54.12;98094.91;6232315;22;20017;-79
2021/07/22 03:10:27;;;;;;;17.27;8.65;;;;;;;24.34;53.81;98095.00;6259693;22;20441;-81
2021/07/22 03:12:55;;;;;;;29.35;8.88;;;;;;;24.45;53.51;98099.63;6259716;22;20059;-78
2021/07/22 03:15:22;;;;;;;21.30;8.40;;;;;;;24.54;53.33;98084.47;6285560;22;20059;-78
2021/07/22 03:17:49;;;;;;;19.08;8.32;;;;;;;24.59;53.18;98094.69;6183417;22;20110;-78
2021/07/22 03:20:17;;;;;;;31.42;8.90;;;;;;;24.67;52.95;98099.75;6258456;22;20031;-79
2021/07/22 03:22:49;;;;;;;25.45;8.82;;;;;;;24.77;52.86;98082.72;6211151;22;20029;-79
2021/07/22 03:25:25;;;;;;;21.13;7.72;;;;;;;24.85;52.62;98090.53;6236175;22;20104;-78
2021/07/22 03:28:09;;;;;;;38.42;20.95;;;;;;;24.92;52.21;98089.28;6246735;22;20028;-79
2021/07/22 03:30:42;;;;;;;19.90;7.80;;;;;;;25.02;51.72;98090.56;6236952;22;20025;-77
2021/07/22 03:33:32;;;;;;;16.48;8.27;;;;;;;25.00;52.04;98054.44;6238132;22;20086;-77
2021/07/22 03:36:22;;;;;;;17.08;8.15;;;;;;;25.26;51.54;98058.44;6235501;22;20054;-79
2021/07/22 03:39:06;;;;;;;17.77;7.70;;;;;;;25.32;51.12;98052.81;6281633;22;20113;-77
2021/07/22 03:41:49;;;;;;;15.60;7.68;;;;;;;25.35;51.14;98056.94;6235190;22;20017;-78
2021/07/22 03:44:27;;;;;;;15.07;7.30;;;;;;;25.36;51.21;98055.88;6153099;22;20096;-79
2021/07/22 03:46:57;;;;;;;17.02;7.28;;;;;;;25.32;51.13;98041.88;6230022;22;20024;-79
2021/07/22 03:49:28;;;;;;;15.85;6.95;;;;;;;25.58;50.79;98061.44;6278282;22;20025;-77
2021/07/22 03:52:03;;;;;;;13.13;7.18;;;;;;;25.62;50.98;98046.16;6228924;22;20020;-78
2021/07/22 03:54:39;;;;;;;14.75;7.82;;;;;;;25.58;50.36;98023.13;6259040;22;20025;-76
2021/07/22 03:57:08;;;;;;;18.17;7.32;;;;;;;25.74;50.63;98022.25;6231320;22;20094;-76
2021/07/22 03:59:41;;;;;;;17.15;7.53;;;;;;;25.98;50.39;98031.06;6232908;22;20021;-77
2021/07/22 04:02:20;;;;;;;15.52;7.35;;;;;;;26.28;49.98;98049.78;6207683;22;20087;-77
2021/07/22 04:04:59;;;;;;;17.42;7.38;;;;;;;26.44;49.72;98047.22;6241170;22;20021;-78
2021/07/22 04:08:06;;;;;;;17.10;6.93;;;;;;;26.22;49.43;98009.75;6233802;22;20036;-79
2021/07/22 04:10:45;;;;;;;17.42;6.72;;;;;;;26.40;49.33;98022.25;6257470;22;20075;-78
2021/07/22 04:14:06;;;;;;;13.13;6.80;;;;;;;26.61;49.31;98015.13;6175193;23;20029;-80
2021/07/22 04:17:01;;;;;;;;;;;;;;;;;;;;;
2021/07/22 04:19:56;;;;;;;20.83;10.63;;;;;;;27.03;48.61;98019.88;6199602;22;20044;-78
2021/07/22 04:23:07;;;;;;;17.90;8.13;;;;;;;27.24;48.33;97997.03;6241718;22;20590;-76
2021/07/22 04:25:39;;;;;;;13.05;6.70;;;;;;;27.42;48.04;97997.69;6253130;22;20021;-77
2021/07/22 04:28:15;;;;;;;11.85;6.32;;;;;;;27.60;47.79;98016.47;6209754;22;20040;-76
2021/07/22 04:30:42;;;;;;;15.75;6.75;;;;;;;27.48;48.06;97988.41;6231760;22;20054;-78
2021/07/22 04:33:28;;;;;;;11.02;6.20;;;;;;;27.49;47.71;97992.81;6228318;22;20032;-76
2021/07/22 04:36:01;;;;;;;25.92;6.80;;;;;;;27.62;47.55;97975.88;6179128;22;20070;-76
2021/07/22 04:39:07;;;;;;;12.10;6.20;;;;;;;27.72;47.44;97959.47;6262320;22;20048;-78
2021/07/22 04:42:10;;;;;;;12.18;6.43;;;;;;;27.93;47.16;97985.09;6244284;22;20025;-78
2021/07/22 04:45:11;;;;;;;20.70;6.60;;;;;;;28.00;47.10;97973.88;6219711;22;20126;-79
2021/07/22 04:48:05;;;;;;;15.73;6.93;;;;;;;28.09;46.94;97966.75;6161107;23;20097;-79
2021/07/22 04:50:55;;;;;;;9.88;6.30;;;;;;;28.16;46.89;97964.59;6265972;22;20021;-77
2021/07/22 04:53:41;;;;;;;17.20;6.45;;;;;;;28.30;46.82;97968.47;6260046;22;20096;-78
2021/07/22 04:56:11;;;;;;;14.50;6.43;;;;;;;28.48;46.80;97967.16;6256254;22;20099;-79
2021/07/22 04:58:40;;;;;;;9.75;6.60;;;;;;;28.55;46.02;97962.25;6256881;22;20024;-78
2021/07/22 05:01:16;;;;;;;14.52;6.88;;;;;;;28.57;46.20;97953.72;6233992;22;20032;-78
2021/07/22 05:03:45;;;;;;;14.07;7.47;;;;;;;28.83;45.58;97946.28;6230644;22;20039;-76
2021/07/22 05:06:22;;;;;;;11.00;6.55;;;;;;;28.89;45.33;97934.22;6106196;23;20055;-79
2021/07/22 05:09:32;;;;;;;8.73;6.22;;;;;;;29.15;45.34;97942.44;6087554;23;20045;-76
2021/07/22 05:12:10;;;;;;;12.93;6.57;;;;;;;29.13;44.94;97937.22;6103502;23;20055;-79
2021/07/22 05:14:51;;;;;;;16.13;6.05;;;;;;;29.18;44.60;97939.97;6109015;23;20580;-78
2021/07/22 05:17:27;;;;;;;29.80;6.75;;;;;;;29.23;44.65;97934.47;6107356;23;20124;-80
2021/07/22 05:20:56;;;;;;;;;;;;;;;;;;;;;
2021/07/22 05:24:44;;;;;;;17.10;6.05;;;;;;;29.29;44.38;97936.09;6103156;23;20052;-79
2021/07/22 05:28:24;;;;;;;16.77;6.00;;;;;;;29.18;44.53;97908.88;6051350;23;20449;-85
2021/07/22 05:39:46;;;;;;;24.02;6.65;;;;;;;30.22;42.13;97918.16;6067762;23;20423;-76
2021/07/22 05:42:15;;;;;;;21.65;5.78;;;;;;;30.26;40.57;97923.91;6067310;23;20101;-76
2021/07/22 05:44:42;;;;;;;25.85;5.80;;;;;;;30.46;40.10;97917.44;6068860;23;20026;-77
2021/07/22 05:47:13;;;;;;;13.75;5.55;;;;;;;30.57;38.89;97894.19;6147584;23;20030;-78
2021/07/22 05:49:48;;;;;;;18.45;5.50;;;;;;;30.71;37.92;97888.84;6105451;23;20021;-77
2021/07/22 05:52:15;;;;;;;15.90;5.57;;;;;;;30.77;37.46;97867.56;6128309;23;20074;-76
2021/07/22 05:54:45;;;;;;;14.55;5.03;;;;;;;31.11;37.68;97884.91;6079593;23;20053;-77
2021/07/22 05:57:14;;;;;;;12.13;5.70;;;;;;;31.07;36.74;97864.53;6081498;22;20021;-78
2021/07/22 05:59:41;;;;;;;12.25;5.10;;;;;;;31.43;36.72;97895.34;6104781;23;20028;-77
2021/07/22 06:02:10;;;;;;;13.68;5.40;;;;;;;31.41;36.05;97869.16;6128551;23;20078;-78
2021/07/22 06:04:41;;;;;;;11.52;5.20;;;;;;;31.48;36.29;97877.88;6104563;22;20029;-77
2021/07/22 06:07:21;;;;;;;9.43;4.60;;;;;;;31.64;35.96;97898.69;6250603;22;20539;-79
2021/07/22 06:09:52;;;;;;;11.07;5.28;;;;;;;31.62;35.54;97865.00;6277159;22;20049;-77
2021/07/22 06:12:21;;;;;;;8.60;4.68;;;;;;;31.83;35.23;97868.34;6276232;22;20302;-76
2021/07/22 06:15:15;;;;;;;9.50;4.60;;;;;;;31.73;35.42;97851.88;6242638;22;20368;-79
2021/07/22 06:17:45;;;;;;;11.88;4.72;;;;;;;31.85;35.22;97852.28;6276678;22;20056;-78
2021/07/22 06:20:15;;;;;;;12.13;4.60;;;;;;;31.85;35.22;97818.28;6254495;22;20048;-78
2021/07/22 06:22:46;;;;;;;10.90;4.78;;;;;;;32.03;35.06;97813.91;6257032;22;20028;-77
2021/07/22 06:25:14;;;;;;;10.38;4.60;;;;;;;32.28;34.55;97837.59;6279019;22;20480;-79
2021/07/22 06:27:42;;;;;;;12.88;4.68;;;;;;;32.35;34.22;97844.38;6255760;22;20032;-78
2021/07/22 06:30:10;;;;;;;11.07;4.80;;;;;;;32.45;34.09;97845.34;6256192;22;20013;-81
2021/07/22 06:33:03;;;;;;;11.52;5.13;;;;;;;32.56;34.08;97824.69;6180321;22;20017;-79
2021/07/22 06:36:33;;;;;;;10.05;5.80;;;;;;;32.77;33.40;97848.13;6247984;22;20052;-81
2021/07/22 06:39:45;;;;;;;;;;;;;;;;;;;;;
2021/07/22 06:46:34;;;;;;;15.90;5.55;;;;;;;32.96;32.18;97825.13;6142295;23;20021;-77
2021/07/22 06:49:29;;;;;;;12.25;5.72;;;;;;;33.26;32.16;97832.00;6182132;23;20125;-77
2021/07/22 06:52:06;;;;;;;13.60;6.20;;;;;;;33.31;32.18;97823.59;6117342;23;20555;-78
2021/07/22 06:54:41;;;;;;;15.77;6.40;;;;;;;33.64;32.18;97834.59;6156746;23;20407;-78
2021/07/22 06:57:53;;;;;;;;;;;;;;;;;;;;;
2021/07/22 07:00:58;;;;;;;16.42;5.80;;;;;;;33.84;31.59;97815.53;6181209;23;20383;-77
2021/07/22 07:03:54;;;;;;;10.25;4.85;;;;;;;33.82;31.56;97803.16;6112766;23;20029;-80
2021/07/22 07:06:40;;;;;;;;;;;;;;;;;;;;;
2021/07/22 07:09:21;;;;;;;10.63;4.97;;;;;;;34.29;30.79;97801.75;6159395;23;20017;-79
2021/07/22 07:11:53;;;;;;;14.82;5.60;;;;;;;34.30;30.55;97785.91;6156124;23;20021;-79
2021/07/22 07:14:21;;;;;;;18.80;5.70;;;;;;;34.32;29.75;97778.94;6282985;22;20032;-76
2021/07/22 07:16:50;;;;;;;7.97;5.60;;;;;;;34.30;29.89;97766.50;6231412;22;20033;-77
2021/07/22 07:19:40;;;;;;;9.10;5.68;;;;;;;34.44;29.46;97747.84;6216760;22;20025;-77
2021/07/22 07:22:10;;;;;;;10.88;4.60;;;;;;;34.67;29.08;97742.28;6281191;22;20021;-77
2021/07/22 07:24:40;;;;;;;10.63;4.78;;;;;;;35.08;29.31;97746.72;6277660;22;20040;-75
2021/07/22 07:27:07;;;;;;;10.82;4.75;;;;;;;35.13;29.37;97735.44;6179151;23;20021;-76
2021/07/22 07:29:37;;;;;;;12.38;4.68;;;;;;;35.24;28.84;97714.56;6206936;23;20116;-77
2021/07/22 07:32:04;;;;;;;11.18;4.82;;;;;;;35.27;28.49;97711.97;6258060;22;20028;-77
2021/07/22 07:34:34;;;;;;;9.00;4.28;;;;;;;35.19;28.55;97723.88;6231746;22;20025;-78
2021/07/22 07:40:14;;;;;;;17.30;4.78;;;;;;;35.41;28.61;97722.94;6238253;22;20072;-77
2021/07/22 07:42:43;;;;;;;12.77;5.18;;;;;;;35.40;28.63;97698.28;6257931;22;20033;-78
2021/07/22 07:45:12;;;;;;;15.20;4.50;;;;;;;35.63;28.82;97702.56;6280665;22;20412;-76
2021/07/22 07:47:50;;;;;;;;;;;;;;;;;;;;;
2021/07/22 07:50:17;;;;;;;31.83;5.13;;;;;;;35.87;28.48;97695.69;6236096;22;20025;-82
2021/07/22 07:53:44;;;;;;;;;;;;;;;;;;;;;
2021/07/22 07:56:29;;;;;;;13.43;4.43;;;;;;;35.92;28.02;97676.03;6277038;22;20103;-76
2021/07/22 08:02:47;;;;;;;27.10;16.63;;;;;;;36.35;27.77;97681.53;6180966;22;20021;-78
2021/07/22 08:10:05;;;;;;;12.02;4.85;;;;;;;36.20;27.64;97657.03;5974203;23;20460;-79
2021/07/22 08:16:06;;;;;;;12.60;4.10;;;;;;;36.97;26.90;97645.94;6151735;23;20017;-77
2021/07/22 08:18:46;;;;;;;17.45;4.32;;;;;;;37.22;26.89;97642.19;6106220;23;20074;-77
2021/07/22 08:24:33;;;;;;;;;;;;;;;;;;;;;
2021/07/22 08:27:15;;;;;;;13.43;4.07;;;;;;;36.71;25.81;97636.56;6108547;23;20025;-80
2021/07/22 08:30:16;;;;;;;12.93;3.83;;;;;;;36.94;25.57;97670.56;6156209;23;20112;-81
2021/07/22 08:32:47;;;;;;;10.15;3.60;;;;;;;36.93;25.35;97643.78;6153647;23;20368;-79
2021/07/22 08:35:44;;;;;;;14.65;3.92;;;;;;;36.79;25.38;97654.38;6129005;23;20059;-80
2021/07/22 08:39:06;;;;;;;;;;;;;;;;;;;;;
2021/07/22 08:42:33;;;;;;;21.50;4.20;;;;;;;36.83;25.25;97612.75;6025306;23;20034;-80
2021/07/22 08:45:38;;;;;;;22.48;4.68;;;;;;;36.87;25.46;97628.47;6165863;22;20071;-79
2021/07/22 08:48:15;;;;;;;12.32;4.15;;;;;;;36.64;25.98;97591.75;6134220;22;20100;-78
2021/07/22 08:51:20;;;;;;;15.65;3.90;;;;;;;36.59;25.89;97605.03;6130047;23;20017;-80
2021/07/22 08:54:38;;;;;;;17.88;3.85;;;;;;;36.40;26.28;97606.22;6086237;23;20444;-83
2021/07/22 09:02:01;;;;;;;21.27;3.95;;;;;;;36.58;25.99;97581.13;6033594;23;20031;-78
2021/07/22 09:04:54;;;;;;;16.67;4.05;;;;;;;36.90;25.59;97568.50;6087002;23;20034;-78
2021/07/22 09:07:21;;;;;;;15.50;4.00;;;;;;;37.09;25.31;97562.50;6117483;22;20352;-78
2021/07/22 09:10:26;;;;;;;;;;;;;;;;;;;;;
2021/07/22 09:13:13;;;;;;;15.25;4.35;;;;;;;37.71;24.84;97514.19;6157382;23;20029;-78
2021/07/22 09:16:01;;;;;;;14.57;3.95;;;;;;;37.88;24.95;97494.53;6156154;23;20040;-77
2021/07/22 09:18:36;;;;;;;21.80;4.40;;;;;;;38.26;24.85;97506.50;6135732;23;20432;-76
2021/07/22 09:21:18;;;;;;;17.73;4.45;;;;;;;38.46;24.30;97513.16;6082244;23;20052;-78
2021/07/22 09:24:11;;;;;;;19.67;3.97;;;;;;;38.69;23.65;97503.09;6130747;23;20024;-77
2021/07/22 09:26:39;;;;;;;20.60;4.10;;;;;;;38.69;23.46;97503.09;6107448;23;20020;-77
2021/07/22 09:29:11;;;;;;;16.30;3.63;;;;;;;38.81;23.52;97499.50;6106495;23;20017;-76
2021/07/22 09:31:37;;;;;;;17.05;4.13;;;;;;;38.94;23.77;97486.31;6130515;23;20017;-77
2021/07/22 09:34:04;;;;;;;11.60;3.70;;;;;;;39.29;23.35;97501.34;6232845;23;20150;-77
2021/07/22 09:36:32;;;;;;;27.95;4.00;;;;;;;39.43;23.15;97505.72;6105960;23;20013;-78
2021/07/22 09:39:17;;;;;;;15.00;4.20;;;;;;;39.76;22.92;97503.44;6155080;22;20024;-77
2021/07/22 09:41:43;;;;;;;14.07;3.50;;;;;;;39.81;22.73;97505.97;6129745;23;20021;-76
2021/07/22 09:44:35;;;;;;;12.65;4.10;;;;;;;39.51;22.89;97507.53;6105963;23;20497;-78
2021/07/22 09:47:03;;;;;;;16.63;4.05;;;;;;;38.81;23.34;97497.50;6154905;23;20021;-77
2021/07/22 09:49:31;;;;;;;14.85;3.78;;;;;;;38.33;23.76;97538.25;6130323;23;20019;-78
2021/07/22 09:52:02;;;;;;;14.90;3.67;;;;;;;37.64;24.38;97633.81;6180578;23;20059;-78
2021/07/22 09:55:01;;;;;;;75.68;6.38;;;;;;;35.21;25.45;97704.13;6106899;23;20029;-79
2021/07/22 10:03:21;;;;;;;;;;;;;;;;;;;;;
2021/07/22 10:11:35;;;;;;;14.63;5.60;;;;;;;23.42;63.82;97681.13;6099170;23;20032;-81
2021/07/22 10:14:26;;;;;;;17.65;6.53;;;;;;;23.02;66.56;97677.41;6219575;23;20026;-79
2021/07/22 10:17:18;;;;;;;14.95;6.55;;;;;;;22.70;67.40;97606.19;6100026;23;20059;-79
2021/07/22 10:19:45;;;;;;;17.48;5.85;;;;;;;22.38;65.73;97575.03;6098480;23;20028;-80
2021/07/22 10:22:41;;;;;;;22.15;6.18;;;;;;;22.35;67.31;97640.88;6123714;23;20014;-81
2021/07/22 10:29:25;;;;;;;12.65;5.93;;;;;;;21.99;67.80;97556.53;6241588;23;20070;-82
2021/07/22 10:54:19;;;;;;;;;;;;;;;;;;;;;
2021/07/22 10:59:58;;;;;;;17.25;6.10;;;;;;;24.32;59.98;97508.09;6066130;23;20113;-79
2021/07/22 11:02:45;;;;;;;12.93;5.10;;;;;;;24.51;58.40;97505.06;6116843;23;20014;-81
2021/07/22 11:05:40;;;;;;;7.93;5.35;;;;;;;25.05;55.62;97543.28;6034107;23;20026;-80
2021/07/22 11:08:28;;;;;;;18.25;5.90;;;;;;;25.24;56.11;97514.50;6280222;22;20025;-80
2021/07/22 11:11:02;;;;;;;23.10;12.43;;;;;;;25.41;58.07;97509.69;6210017;22;20028;-80
2021/07/22 11:13:55;;;;;;;18.85;6.50;;;;;;;25.64;57.57;97526.81;6236369;22;20020;-77
2021/07/22 11:16:29;;;;;;;11.95;6.25;;;;;;;25.73;57.35;97500.59;6277507;22;20064;-78
2021/07/22 11:19:09;;;;;;;16.23;6.45;;;;;;;26.14;57.07;97517.25;6207075;22;20467;-78
2021/07/22 11:21:48;;;;;;;15.55;6.57;;;;;;;26.55;55.73;97509.19;6256525;22;20013;-76
2021/07/22 11:24:20;;;;;;;12.00;5.80;;;;;;;26.98;54.41;97504.31;6230933;22;20040;-78
2021/07/22 11:26:55;;;;;;;15.77;6.20;;;;;;;27.73;52.79;97519.09;6252400;22;20063;-78
2021/07/22 11:29:23;;;;;;;15.52;6.35;;;;;;;28.48;52.31;97488.09;6257757;22;20042;-78
2021/07/22 11:32:05;;;;;;;11.35;6.43;;;;;;;29.06;50.26;97477.25;6256219;22;20111;-76
2021/07/22 11:35:23;;;;;;;;;;;;;;;;;;;;;
2021/07/22 11:38:23;;;;;;;;;;;;;;;;;;;;;
2021/07/22 11:41:10;;;;;;;16.38;6.25;;;;;;;30.23;45.78;97478.81;6236774;22;20048;-79
2021/07/22 11:44:10;;;;;;;;;;;;;;;;;;;;;
2021/07/22 11:48:46;;;;;;;;;;;;;;;;;;;;;
2021/07/22 11:55:08;;;;;;;10.63;5.20;;;;;;;32.76;41.55;97486.78;6185516;23;20034;-79
2021/07/22 11:58:23;;;;;;;13.98;5.85;;;;;;;33.51;40.52;97514.88;6159748;23;20023;-81
2021/07/22 12:01:36;;;;;;;;;;;;;;;;;;;;;
2021/07/22 12:14:39;;;;;;;;;;;;;;;;;;;;;
2021/07/22 12:30:50;;;;;;;16.15;4.07;;;;;;;38.44;29.80;97470.81;5919208;24;20025;-79
2021/07/22 12:33:24;;;;;;;9.95;3.90;;;;;;;39.00;28.98;97493.25;5957909;23;20023;-74
2021/07/22 12:35:52;;;;;;;14.82;4.28;;;;;;;39.54;28.10;97484.44;6002882;23;20323;-77
2021/07/22 12:38:18;;;;;;;7.47;3.80;;;;;;;38.94;28.68;97484.34;6188782;22;20017;-76
2021/07/22 12:40:49;;;;;;;9.55;3.90;;;;;;;38.54;29.11;97492.66;6255438;22;20028;-75
2021/07/22 12:43:23;;;;;;;13.10;4.18;;;;;;;38.05;29.32;97492.66;6280508;22;20028;-75
2021/07/22 12:45:53;;;;;;;19.67;3.83;;;;;;;36.87;30.28;97494.78;6229622;22;20399;-75
2021/07/22 12:48:39;;;;;;;9.18;3.67;;;;;;;36.85;31.11;97488.72;6230333;22;20040;-75
2021/07/22 12:51:23;;;;;;;26.10;4.22;;;;;;;36.35;32.02;97489.56;6280180;22;20021;-75
2021/07/22 12:53:49;;;;;;;19.13;4.35;;;;;;;35.78;32.90;97481.63;6229118;22;20017;-75
2021/07/22 12:56:16;;;;;;;11.52;3.95;;;;;;;35.78;33.30;97484.41;6103006;23;20047;-75
2021/07/22 12:58:50;;;;;;;13.60;4.47;;;;;;;35.92;32.71;97471.13;6255206;22;20037;-75
2021/07/22 13:01:20;;;;;;;13.43;4.25;;;;;;;35.45;33.51;97467.47;6256059;22;20021;-75
2021/07/22 13:03:49;;;;;;;11.65;4.07;;;;;;;35.33;33.43;97464.59;6133290;22;20017;-76
2021/07/22 13:06:17;;;;;;;7.53;3.95;;;;;;;35.36;33.42;97475.84;6081833;22;20425;-75
2021/07/22 13:08:43;;;;;;;11.85;4.10;;;;;;;35.41;33.00;97470.09;6205027;22;20333;-76
2021/07/22 13:11:10;;;;;;;9.40;4.18;;;;;;;35.65;33.07;97454.84;6230836;22;20046;-75
2021/07/22 13:13:49;;;;;;;10.73;3.77;;;;;;;36.61;32.05;97458.81;6229637;22;20104;-76
2021/07/22 13:16:17;;;;;;;13.60;4.57;;;;;;;37.23;30.88;97440.41;6231866;22;20021;-75
2021/07/22 13:18:44;;;;;;;11.90;7.20;;;;;;;37.07;30.29;97458.94;6229445;22;20025;-76
2021/07/22 13:21:11;;;;;;;18.83;14.88;;;;;;;37.30;29.54;97460.16;6228865;22;20062;-75
2021/07/22 13:23:38;;;;;;;12.07;3.70;;;;;;;37.45;28.58;97455.13;6229474;22;20051;-76
2021/07/22 13:26:05;;;;;;;11.07;3.85;;;;;;;37.85;28.63;97453.34;6102845;23;20512;-75
2021/07/22 13:28:32;;;;;;;11.57;3.85;;;;;;;38.41;27.95;97454.78;6105934;22;20457;-74
2021/07/22 13:30:59;;;;;;;10.63;3.90;;;;;;;38.48;27.51;97438.22;6079554;23;20028;-75
2021/07/22 13:33:25;;;;;;;9.23;3.97;;;;;;;37.54;28.34;97444.69;6254994;22;20033;-77
2021/07/22 13:35:51;;;;;;;24.70;5.97;;;;;;;36.76;29.44;97454.59;6204822;22;20048;-75
2021/07/22 13:38:31;;;;;;;10.73;4.03;;;;;;;36.32;30.55;97442.94;6254001;22;20027;-74
2021/07/22 13:40:58;;;;;;;13.82;4.13;;;;;;;35.97;30.96;97440.34;6210680;22;20504;-76
2021/07/22 13:43:24;;;;;;;13.77;4.28;;;;;;;35.75;30.37;97433.06;6229509;22;20024;-76
2021/07/22 13:45:51;;;;;;;8.90;4.30;;;;;;;35.95;31.00;97437.06;6253151;22;20053;-76
2021/07/22 13:48:18;;;;;;;8.02;4.63;;;;;;;36.43;30.73;97435.00;6078884;23;20028;-75
2021/07/22 13:50:46;;;;;;;14.02;4.60;;;;;;;37.83;28.82;97427.75;6255450;22;20024;-76
2021/07/22 13:53:13;;;;;;;16.65;4.70;;;;;;;39.25;27.27;97443.72;6206311;22;20025;-75
2021/07/22 13:55:40;;;;;;;22.35;4.30;;;;;;;39.93;25.99;97434.31;6255546;22;20013;-74
2021/07/22 13:58:09;;;;;;;18.45;5.07;;;;;;;40.38;25.12;97431.00;6229537;22;20703;-75
2021/07/22 14:00:36;;;;;;;13.63;3.90;;;;;;;40.32;25.15;97434.44;6255297;22;20021;-78
2021/07/22 14:03:04;;;;;;;10.73;4.07;;;;;;;40.09;25.50;97440.69;6204773;22;20078;-75
2021/07/22 14:05:32;;;;;;;12.30;4.40;;;;;;;39.88;25.90;97434.59;6230524;22;20017;-74
2021/07/22 14:07:59;;;;;;;;;;;;;;;39.23;26.44;97441.25;6104493;22;20108;-75
2021/07/22 14:10:25;;;;;;;15.90;5.15;;;;;;;38.67;27.52;97449.59;6255567;22;19916;-76
2021/07/22 14:12:54;;;;;;;10.43;4.15;;;;;;;38.91;27.12;97423.59;6252843;22;20520;-74
2021/07/22 14:15:23;;;;;;;15.45;6.07;;;;;;;39.25;27.59;97438.94;6253974;22;20049;-75
2021/07/22 14:17:50;;;;;;;14.35;7.32;;;;;;;39.80;26.57;97423.22;6255346;22;20041;-78